createdAt,value
2023-03-28T00:00:51.099Z,1.50
2023-03-28T00:03:22.502Z,1.50
2023-03-28T00:05:51.280Z,1.50
2023-03-28T00:08:18.459Z,1.40
2023-03-28T00:10:45.461Z,1.30
2023-03-28T00:13:15.830Z,1.30
2023-03-28T00:15:42.905Z,1.20
2023-03-28T00:18:12.686Z,1.20
2023-03-28T00:20:43.585Z,1.00
2023-03-28T00:23:12.161Z,1.10
2023-03-28T00:25:41.575Z,1.20
2023-03-28T00:28:09.235Z,1.30
2023-03-28T00:30:36.070Z,1.40
2023-03-28T00:33:05.135Z,1.30
2023-03-28T00:35:32.532Z,1.10
2023-03-28T00:37:59.222Z,1.00
2023-03-28T00:40:27.375Z,1.10
2023-03-28T00:42:54.176Z,1.10
2023-03-28T00:45:23.852Z,1.10
2023-03-28T00:48:13.978Z,1.10
2023-03-28T00:50:48.540Z,1.20
2023-03-28T00:53:23.887Z,1.20
2023-03-28T00:55:57.333Z,1.40
2023-03-28T00:58:29.277Z,1.30
2023-03-28T01:00:57.478Z,1.30
2023-03-28T01:03:30.603Z,1.30
2023-03-28T01:05:58.483Z,1.40
2023-03-28T01:08:38.927Z,1.40
2023-03-28T01:11:06.876Z,1.30
2023-03-28T01:13:38.307Z,1.30
2023-03-28T01:16:07.054Z,1.30
2023-03-28T01:18:36.704Z,1.20
2023-03-28T01:21:05.872Z,1.30
2023-03-28T01:24:10.855Z,1.20
2023-03-28T01:26:53.110Z,1.20
2023-03-28T01:29:47.371Z,1.30
2023-03-28T01:32:17.865Z,1.30
2023-03-28T01:35:08.909Z,1.10
2023-03-28T01:38:14.670Z,1.20
2023-03-28T01:41:05.146Z,1.10
2023-03-28T01:43:42.573Z,1.10
2023-03-28T01:46:20.773Z,1.10
2023-03-28T01:48:57.712Z,1.20
2023-03-28T01:51:41.040Z,1.20
2023-03-28T01:54:34.510Z,1.20
2023-03-28T01:57:21.468Z,1.40
2023-03-28T02:00:01.961Z,1.20
2023-03-28T02:02:57.706Z,1.10
2023-03-28T02:05:32.052Z,1.10
2023-03-28T02:08:02.755Z,1.00
2023-03-28T02:10:41.963Z,0.90
2023-03-28T02:13:34.553Z,0.80
2023-03-28T02:16:13.429Z,0.60
2023-03-28T02:19:00.576Z,0.60
2023-03-28T02:21:58.436Z,0.50
2023-03-28T02:24:45.830Z,0.40
2023-03-28T02:27:22.647Z,0.40
2023-03-28T02:29:58.825Z,0.40
2023-03-28T02:32:35.728Z,0.50
2023-03-28T02:35:09.501Z,0.50
2023-03-28T02:37:49.518Z,0.70
2023-03-28T02:40:47.762Z,0.60
2023-03-28T02:43:35.910Z,0.60
2023-03-28T02:46:23.963Z,0.50
2023-03-28T02:48:53.764Z,0.50
2023-03-28T02:51:40.434Z,0.50
2023-03-28T02:54:34.946Z,0.50
2023-03-28T02:57:39.005Z,0.60
2023-03-28T03:00:12.326Z,0.60
2023-03-28T03:02:42.039Z,0.60
2023-03-28T03:05:09.711Z,0.60
2023-03-28T03:07:41.456Z,0.50
2023-03-28T03:10:11.313Z,0.30
2023-03-28T03:12:38.240Z,0.30
2023-03-28T03:15:07.258Z,0.30
2023-03-28T03:17:49.126Z,0.20
2023-03-28T03:20:22.856Z,0.30
2023-03-28T03:22:49.582Z,0.40
2023-03-28T03:25:16.351Z,0.20
2023-03-28T03:27:53.585Z,0.20
2023-03-28T03:30:20.701Z,0.30
2023-03-28T03:33:06.135Z,0.20
2023-03-28T03:35:33.657Z,0.30
2023-03-28T03:38:04.493Z,0.30
2023-03-28T03:40:31.210Z,0.20
2023-03-28T03:42:58.666Z,0.30
2023-03-28T03:45:25.663Z,0.40
2023-03-28T03:47:52.859Z,0.50
2023-03-28T03:50:20.503Z,0.40
2023-03-28T03:52:49.751Z,0.30
2023-03-28T03:55:22.610Z,0.20
2023-03-28T03:57:49.348Z,0.30
2023-03-28T04:00:17.030Z,0.30
2023-03-28T04:02:47.271Z,0.30
2023-03-28T04:05:19.723Z,0.40
2023-03-28T04:08:01.666Z,0.40
2023-03-28T04:10:33.720Z,0.30
2023-03-28T04:13:00.727Z,0.20
2023-03-28T04:15:27.886Z,0.30
2023-03-28T04:18:15.412Z,0.30
2023-03-28T04:20:49.552Z,0.10
2023-03-28T04:23:26.173Z,0.00
2023-03-28T04:25:57.278Z,0.00
2023-03-28T04:28:43.479Z,0.10
2023-03-28T04:31:12.062Z,0.20
2023-03-28T04:33:57.624Z,0.20
2023-03-28T04:36:25.879Z,0.20
2023-03-28T04:39:02.760Z,0.20
2023-03-28T04:41:48.463Z,0.20
2023-03-28T04:44:15.563Z,0.00
2023-03-28T04:46:48.823Z,-0.10
2023-03-28T04:49:15.589Z,-0.10
2023-03-28T04:51:45.910Z,-0.10
2023-03-28T04:54:12.791Z,-0.10
2023-03-28T04:56:39.570Z,-0.10
2023-03-28T04:59:06.623Z,-0.20
2023-03-28T05:01:34.604Z,-0.20
2023-03-28T05:04:21.979Z,-0.30
2023-03-28T05:06:49.975Z,-0.30
2023-03-28T05:09:18.102Z,-0.20
2023-03-28T05:11:46.383Z,-0.10
2023-03-28T05:14:13.599Z,0.00
2023-03-28T05:16:47.518Z,0.30
2023-03-28T05:19:26.300Z,0.40
2023-03-28T05:22:04.039Z,0.30
2023-03-28T05:24:31.125Z,0.20
2023-03-28T05:26:57.928Z,-0.20
2023-03-28T05:29:25.255Z,-0.20
2023-03-28T05:31:52.911Z,-0.40
2023-03-28T05:34:29.376Z,-0.40
2023-03-28T05:36:57.154Z,-0.40
2023-03-28T05:39:28.809Z,-0.50
2023-03-28T05:42:06.963Z,-0.60
2023-03-28T05:44:35.937Z,-0.60
2023-03-28T05:47:26.068Z,-0.50
2023-03-28T05:49:54.903Z,-0.60
2023-03-28T05:52:22.308Z,-0.50
2023-03-28T05:54:50.661Z,-0.30
2023-03-28T05:57:21.436Z,-0.40
2023-03-28T05:59:49.431Z,-0.40
2023-03-28T06:02:21.672Z,-0.40
2023-03-28T06:04:48.703Z,-0.40
2023-03-28T06:07:15.975Z,-0.30
2023-03-28T06:09:43.740Z,-0.30
2023-03-28T06:12:11.396Z,-0.30
2023-03-28T06:14:43.276Z,0.00
2023-03-28T06:17:23.792Z,0.00
2023-03-28T06:19:54.767Z,0.10
2023-03-28T06:22:21.630Z,0.10
2023-03-28T06:24:53.857Z,0.10
2023-03-28T06:27:26.629Z,0.00
2023-03-28T06:29:54.703Z,-0.10
2023-03-28T06:32:22.127Z,0.00
2023-03-28T06:34:49.143Z,0.10
2023-03-28T06:37:15.932Z,0.30
2023-03-28T06:40:11.889Z,0.50
2023-03-28T06:42:39.340Z,0.30
2023-03-28T06:45:21.143Z,0.30
2023-03-28T06:47:53.780Z,0.50
2023-03-28T06:50:27.563Z,0.50
2023-03-28T06:52:57.991Z,0.60
2023-03-28T06:55:24.907Z,0.70
2023-03-28T06:57:51.700Z,0.80
2023-03-28T07:00:28.472Z,1.30
2023-03-28T07:03:18.515Z,1.40
2023-03-28T07:05:45.748Z,1.50
2023-03-28T07:08:13.541Z,1.60
2023-03-28T07:10:41.555Z,1.60
2023-03-28T07:13:08.523Z,1.60
2023-03-28T07:15:42.525Z,1.70
2023-03-28T07:18:10.688Z,1.70
2023-03-28T07:20:41.617Z,1.80
2023-03-28T07:23:08.741Z,1.90
2023-03-28T07:25:35.776Z,2.10
2023-03-28T07:28:02.916Z,2.10
2023-03-28T07:30:29.703Z,2.20
2023-03-28T07:33:06.491Z,2.30
2023-03-28T07:35:42.079Z,2.40
2023-03-28T07:38:12.304Z,2.40
2023-03-28T07:40:48.937Z,2.40
2023-03-28T07:43:15.836Z,2.50
2023-03-28T07:45:42.911Z,2.40
2023-03-28T07:48:10.951Z,2.50
2023-03-28T07:50:37.957Z,2.60
2023-03-28T07:53:04.785Z,2.70
2023-03-28T07:55:48.445Z,2.70
2023-03-28T07:58:24.677Z,2.80
2023-03-28T08:00:51.988Z,3.20
2023-03-28T08:03:44.793Z,3.20
2023-03-28T08:06:28.775Z,3.30
2023-03-28T08:08:58.716Z,3.40
2023-03-28T08:11:41.217Z,3.30
2023-03-28T08:14:12.200Z,3.30
2023-03-28T08:16:40.646Z,3.30
2023-03-28T08:19:11.657Z,3.50
2023-03-28T08:21:58.770Z,3.60
2023-03-28T08:24:35.216Z,3.80
2023-03-28T08:27:10.232Z,4.00
2023-03-28T08:29:37.017Z,4.00
2023-03-28T08:32:06.135Z,4.10
2023-03-28T08:34:33.137Z,4.10
2023-03-28T08:37:01.924Z,4.10
2023-03-28T08:39:29.846Z,4.10
2023-03-28T08:42:33.756Z,4.20
2023-03-28T08:45:31.519Z,4.20
2023-03-28T08:48:22.883Z,4.10
2023-03-28T08:51:13.020Z,4.10
2023-03-28T08:53:44.571Z,4.30
2023-03-28T08:56:15.358Z,4.50
2023-03-28T08:59:07.322Z,4.50
2023-03-28T09:01:35.061Z,4.60
2023-03-28T09:04:02.612Z,4.80
2023-03-28T09:06:40.915Z,4.80
2023-03-28T09:09:50.660Z,4.90
2023-03-28T09:12:59.865Z,5.20
2023-03-28T09:15:37.350Z,5.50
2023-03-28T09:18:09.923Z,5.50
2023-03-28T09:20:51.432Z,5.60
2023-03-28T09:24:09.106Z,5.90
2023-03-28T09:27:12.707Z,6.10
2023-03-28T09:29:42.952Z,6.10
2023-03-28T09:32:28.625Z,6.20
2023-03-28T09:34:56.699Z,6.20
2023-03-28T09:37:27.464Z,6.30
2023-03-28T09:39:57.400Z,6.50
2023-03-28T09:42:51.148Z,6.60
2023-03-28T09:46:00.988Z,6.60
2023-03-28T09:48:50.500Z,6.20
2023-03-28T09:51:21.020Z,6.40
2023-03-28T09:53:48.328Z,6.30
2023-03-28T09:56:32.131Z,6.50
2023-03-28T09:59:29.868Z,6.80
2023-03-28T10:02:04.003Z,7.00
2023-03-28T10:04:38.537Z,7.20
2023-03-28T10:07:31.441Z,7.50
2023-03-28T10:10:19.914Z,7.70
2023-03-28T10:12:55.552Z,7.50
2023-03-28T10:15:51.241Z,7.70
2023-03-28T10:18:39.502Z,7.60
2023-03-28T10:21:31.918Z,7.50
2023-03-28T10:24:22.018Z,8.10
2023-03-28T10:27:27.312Z,9.60
2023-03-28T10:29:57.365Z,10.50
2023-03-28T10:32:31.188Z,11.20
2023-03-28T10:35:27.970Z,11.80
2023-03-28T10:38:16.440Z,13.20
2023-03-28T10:41:09.316Z,14.00
2023-03-28T10:44:18.730Z,14.30
2023-03-28T10:46:52.321Z,15.40
2023-03-28T10:49:40.762Z,16.80
2023-03-28T10:52:38.570Z,17.20
2023-03-28T10:55:15.643Z,16.70
2023-03-28T10:58:19.237Z,16.00
2023-03-28T11:01:10.869Z,16.50
2023-03-28T11:04:13.750Z,17.00
2023-03-28T11:06:54.645Z,17.00
2023-03-28T11:09:46.595Z,17.20
2023-03-28T11:13:02.743Z,16.70
2023-03-28T11:16:09.528Z,16.00
2023-03-28T11:19:30.267Z,15.30
2023-03-28T11:22:14.936Z,15.00
2023-03-28T11:24:53.440Z,14.00
2023-03-28T11:27:50.980Z,14.00
2023-03-28T11:30:33.623Z,13.70
2023-03-28T11:33:29.181Z,12.90
2023-03-28T11:36:12.296Z,12.60
2023-03-28T11:39:06.772Z,12.40
2023-03-28T11:41:38.313Z,12.70
2023-03-28T11:44:29.969Z,13.30
2023-03-28T11:47:05.542Z,13.20
2023-03-28T11:49:39.547Z,13.00
2023-03-28T11:52:38.213Z,13.30
2023-03-28T11:55:20.880Z,13.60
2023-03-28T11:58:11.422Z,13.60
2023-03-28T12:00:47.231Z,13.60
2023-03-28T12:03:58.915Z,13.20
2023-03-28T12:06:52.240Z,12.90
2023-03-28T12:09:44.342Z,12.60
2023-03-28T12:12:19.223Z,12.30
2023-03-28T12:14:52.252Z,12.20
2023-03-28T12:17:36.498Z,12.30
2023-03-28T12:20:08.010Z,12.10
2023-03-28T12:22:42.498Z,12.00
2023-03-28T12:25:23.070Z,12.60
2023-03-28T12:28:04.002Z,13.00
2023-03-28T12:30:42.984Z,12.90
2023-03-28T12:33:39.168Z,12.80
2023-03-28T12:36:25.962Z,12.70
2023-03-28T12:39:24.377Z,12.90
2023-03-28T12:41:53.990Z,13.10
2023-03-28T12:44:25.849Z,13.20
2023-03-28T12:47:14.809Z,13.00
2023-03-28T12:50:03.180Z,12.70
2023-03-28T12:52:38.345Z,13.00
2023-03-28T12:55:25.643Z,13.20
2023-03-28T12:58:11.529Z,13.30
2023-03-28T13:00:58.625Z,13.10
2023-03-28T13:03:48.918Z,13.10
2023-03-28T13:07:06.981Z,12.80
2023-03-28T13:09:54.245Z,12.80
2023-03-28T13:12:30.264Z,12.70
2023-03-28T13:15:28.773Z,12.80
2023-03-28T13:18:21.280Z,13.10
2023-03-28T13:20:52.683Z,13.30
2023-03-28T13:23:30.646Z,13.10
2023-03-28T13:26:00.042Z,13.00
2023-03-28T13:28:41.946Z,13.10
2023-03-28T13:31:11.295Z,12.90
2023-03-28T13:33:45.970Z,13.10
2023-03-28T13:36:18.537Z,13.20
2023-03-28T13:39:19.540Z,13.40
2023-03-28T13:41:46.171Z,13.50
2023-03-28T13:44:19.937Z,13.60
2023-03-28T13:46:52.588Z,13.60
2023-03-28T13:49:29.984Z,13.80
2023-03-28T13:52:17.649Z,13.40
2023-03-28T13:54:45.967Z,13.40
2023-03-28T13:57:18.737Z,13.40
2023-03-28T13:59:51.808Z,13.30
2023-03-28T14:02:22.270Z,13.00
2023-03-28T14:04:57.327Z,12.60
2023-03-28T14:07:28.177Z,12.60
2023-03-28T14:09:56.596Z,12.60
2023-03-28T14:12:27.596Z,12.80
2023-03-28T14:14:57.230Z,12.70
2023-03-28T14:17:28.107Z,12.90
2023-03-28T14:20:01.434Z,13.20
2023-03-28T14:22:30.372Z,13.40
2023-03-28T14:25:03.582Z,13.30
2023-03-28T14:27:40.600Z,13.10
2023-03-28T14:30:20.613Z,12.90
2023-03-28T14:33:07.047Z,12.80
2023-03-28T14:35:35.419Z,12.70
2023-03-28T14:38:07.340Z,12.70
2023-03-28T14:40:39.945Z,12.60
2023-03-28T14:43:13.717Z,12.40
2023-03-28T14:45:43.954Z,12.30
2023-03-28T14:48:24.551Z,12.10
2023-03-28T14:50:53.577Z,11.70
2023-03-28T14:53:34.449Z,11.50
2023-03-28T14:56:10.369Z,11.60
2023-03-28T14:58:43.662Z,11.60
2023-03-28T15:01:21.649Z,11.50
2023-03-28T15:03:53.708Z,11.60
2023-03-28T15:06:23.350Z,11.30
2023-03-28T15:08:50.701Z,11.50
2023-03-28T15:11:23.621Z,11.70
2023-03-28T15:13:59.269Z,11.70
2023-03-28T15:16:32.695Z,11.80
2023-03-28T15:19:09.441Z,12.00
2023-03-28T15:21:38.398Z,12.00
2023-03-28T15:24:08.449Z,12.10
2023-03-28T15:26:46.049Z,12.30
2023-03-28T15:29:18.727Z,12.30
2023-03-28T15:31:46.227Z,12.20
2023-03-28T15:34:21.339Z,12.10
2023-03-28T15:36:57.646Z,12.00
2023-03-28T15:39:27.611Z,11.90
2023-03-28T15:42:17.201Z,12.10
2023-03-28T15:45:05.220Z,12.20
2023-03-28T15:47:35.931Z,12.20
2023-03-28T15:50:08.363Z,11.90
2023-03-28T15:52:35.759Z,11.70
2023-03-28T15:55:05.678Z,11.50
2023-03-28T15:57:32.624Z,11.60
2023-03-28T16:00:00.748Z,11.70
2023-03-28T16:02:27.566Z,11.90
2023-03-28T16:04:57.512Z,11.60
2023-03-28T16:07:24.484Z,11.70
2023-03-28T16:09:51.529Z,11.90
2023-03-28T16:12:19.450Z,12.00
2023-03-28T16:15:09.814Z,12.00
2023-03-28T16:17:55.426Z,11.80
2023-03-28T16:20:37.915Z,11.30
2023-03-28T16:23:06.636Z,11.30
2023-03-28T16:25:33.753Z,11.30
2023-03-28T16:28:00.642Z,11.40
2023-03-28T16:30:35.097Z,11.50
2023-03-28T16:33:01.871Z,11.50
2023-03-28T16:35:29.046Z,11.40
2023-03-28T16:37:55.887Z,11.30
2023-03-28T16:40:22.938Z,11.30
2023-03-28T16:42:51.026Z,11.50
2023-03-28T16:45:20.322Z,11.20
2023-03-28T16:47:47.593Z,11.20
2023-03-28T16:50:14.852Z,11.10
2023-03-28T16:52:42.080Z,11.10
2023-03-28T16:55:15.759Z,11.20
2023-03-28T16:57:43.551Z,10.80
2023-03-28T17:00:17.785Z,10.80
2023-03-28T17:02:48.786Z,10.80
2023-03-28T17:05:16.800Z,10.70
2023-03-28T17:07:43.624Z,10.60
2023-03-28T17:10:10.997Z,10.60
2023-03-28T17:12:37.691Z,10.60
2023-03-28T17:15:04.858Z,10.60
2023-03-28T17:17:31.538Z,10.60
2023-03-28T17:19:58.737Z,10.50
2023-03-28T17:22:25.726Z,10.50
2023-03-28T17:24:55.515Z,10.60
2023-03-28T17:27:23.291Z,10.50
2023-03-28T17:29:51.688Z,10.40
2023-03-28T17:32:18.740Z,10.40
2023-03-28T17:34:45.793Z,10.10
2023-03-28T17:37:12.588Z,9.90
2023-03-28T17:39:39.790Z,10.10
2023-03-28T17:42:07.120Z,9.90
2023-03-28T17:44:33.874Z,9.60
2023-03-28T17:47:00.876Z,9.30
2023-03-28T17:49:27.618Z,9.10
2023-03-28T17:51:54.653Z,9.10
2023-03-28T17:54:22.331Z,9.20
2023-03-28T17:56:49.360Z,9.20
2023-03-28T17:59:17.154Z,9.20
2023-03-28T18:01:44.563Z,9.20
2023-03-28T18:04:12.656Z,9.20
2023-03-28T18:06:57.951Z,9.00
2023-03-28T18:09:26.965Z,9.00
2023-03-28T18:11:53.692Z,9.00
2023-03-28T18:14:20.374Z,9.00
2023-03-28T18:16:47.585Z,9.00
2023-03-28T18:19:18.188Z,8.90
2023-03-28T18:21:46.598Z,8.80
2023-03-28T18:24:13.866Z,8.70
2023-03-28T18:26:40.745Z,8.70
2023-03-28T18:29:07.474Z,8.70
2023-03-28T18:31:34.703Z,8.70
2023-03-28T18:34:05.001Z,8.60
2023-03-28T18:36:32.720Z,8.60
2023-03-28T18:38:59.526Z,8.60
2023-03-28T18:41:27.376Z,8.60
2023-03-28T18:43:54.192Z,8.60
2023-03-28T18:46:25.764Z,8.60
2023-03-28T18:48:56.378Z,8.50
2023-03-28T18:51:23.456Z,8.50
2023-03-28T18:53:50.178Z,8.40
2023-03-28T18:56:18.565Z,8.30
2023-03-28T18:58:50.267Z,8.30
2023-03-28T19:01:18.500Z,8.40
2023-03-28T19:03:46.951Z,8.30
2023-03-28T19:06:15.194Z,8.20
2023-03-28T19:08:42.392Z,8.20
2023-03-28T19:11:24.208Z,8.20
2023-03-28T19:13:53.802Z,8.20
2023-03-28T19:16:20.515Z,8.30
2023-03-28T19:18:47.998Z,8.20
2023-03-28T19:21:18.207Z,8.10
2023-03-28T19:23:46.720Z,8.00
2023-03-28T19:26:26.005Z,8.00
2023-03-28T19:28:53.486Z,7.90
2023-03-28T19:31:23.787Z,7.90
2023-03-28T19:33:50.597Z,7.70
2023-03-28T19:36:18.015Z,7.70
2023-03-28T19:38:44.809Z,7.70
2023-03-28T19:41:22.142Z,7.60
2023-03-28T19:43:51.311Z,7.60
2023-03-28T19:46:23.843Z,7.70
2023-03-28T19:48:52.939Z,7.80
2023-03-28T19:51:19.612Z,7.70
2023-03-28T19:53:46.467Z,7.60
2023-03-28T19:56:14.059Z,7.60
2023-03-28T19:58:40.994Z,7.70
2023-03-28T20:01:14.632Z,7.90
2023-03-28T20:03:42.532Z,7.90
2023-03-28T20:06:12.474Z,7.80
2023-03-28T20:08:39.473Z,7.80
2023-03-28T20:11:11.884Z,7.80
2023-03-28T20:13:40.080Z,7.70
2023-03-28T20:16:08.476Z,7.70
2023-03-28T20:18:36.906Z,7.80
2023-03-28T20:21:06.689Z,7.70
2023-03-28T20:23:33.764Z,7.70
2023-03-28T20:26:11.109Z,7.70
2023-03-28T20:28:38.114Z,7.70
2023-03-28T20:31:05.449Z,7.80
2023-03-28T20:33:32.950Z,7.60
2023-03-28T20:36:00.401Z,7.70
2023-03-28T20:38:27.776Z,7.60
2023-03-28T20:40:54.462Z,7.70
2023-03-28T20:43:21.375Z,7.80
2023-03-28T20:45:53.695Z,7.80
2023-03-28T20:48:25.820Z,7.80
2023-03-28T20:50:55.617Z,7.70
2023-03-28T20:53:22.603Z,7.60
2023-03-28T20:55:50.212Z,7.60
2023-03-28T20:58:16.918Z,7.70
2023-03-28T21:00:46.153Z,7.70
2023-03-28T21:03:15.703Z,7.60
2023-03-28T21:05:44.642Z,7.80
2023-03-28T21:08:12.651Z,7.70
2023-03-28T21:10:41.209Z,7.60
2023-03-28T21:13:07.976Z,7.60
2023-03-28T21:15:34.728Z,7.80
2023-03-28T21:18:01.532Z,7.60
2023-03-28T21:20:28.796Z,7.40
2023-03-28T21:22:56.241Z,7.40
2023-03-28T21:25:23.272Z,7.60
2023-03-28T21:27:50.016Z,7.70
2023-03-28T21:30:16.828Z,7.50
2023-03-28T21:32:43.902Z,7.40
2023-03-28T21:35:11.426Z,7.30
2023-03-28T21:37:38.566Z,7.30
2023-03-28T21:40:07.076Z,7.40
2023-03-28T21:42:34.995Z,7.50
2023-03-28T21:45:02.037Z,7.50
2023-03-28T21:47:28.795Z,7.70
2023-03-28T21:49:55.510Z,7.60
2023-03-28T21:52:22.195Z,7.70
2023-03-28T21:54:48.900Z,7.70
2023-03-28T21:57:15.674Z,7.70
2023-03-28T21:59:43.635Z,7.70
2023-03-28T22:02:12.069Z,7.50
2023-03-28T22:04:40.998Z,7.40
2023-03-28T22:07:07.712Z,7.50
2023-03-28T22:09:35.809Z,7.50
2023-03-28T22:12:05.489Z,7.30
2023-03-28T22:14:33.887Z,7.30
2023-03-28T22:17:00.588Z,7.20
2023-03-28T22:19:29.937Z,7.40
2023-03-28T22:22:00.667Z,7.20
2023-03-28T22:24:28.108Z,7.20
2023-03-28T22:26:55.536Z,7.20
2023-03-28T22:29:22.410Z,7.20
2023-03-28T22:31:49.230Z,7.10
2023-03-28T22:34:17.611Z,7.20
2023-03-28T22:36:44.379Z,7.30
2023-03-28T22:39:11.174Z,7.20
2023-03-28T22:41:38.061Z,7.20
2023-03-28T22:44:05.082Z,7.30
2023-03-28T22:46:32.032Z,7.30
2023-03-28T22:49:00.542Z,7.20
2023-03-28T22:51:27.842Z,7.10
2023-03-28T22:53:58.822Z,7.10
2023-03-28T22:56:25.536Z,7.30
2023-03-28T22:58:53.852Z,7.30
2023-03-28T23:01:22.978Z,7.20
2023-03-28T23:03:49.744Z,7.20
2023-03-28T23:06:16.393Z,7.20
2023-03-28T23:08:43.075Z,7.10
2023-03-28T23:11:09.927Z,7.20
2023-03-28T23:13:36.675Z,7.10
2023-03-28T23:16:03.645Z,6.90
2023-03-28T23:18:30.769Z,6.90
2023-03-28T23:20:57.472Z,7.00
2023-03-28T23:23:24.428Z,7.00
2023-03-28T23:25:51.378Z,7.00
2023-03-28T23:28:20.324Z,7.00
2023-03-28T23:30:47.205Z,7.00
2023-03-28T23:33:14.006Z,7.20
2023-03-28T23:35:43.206Z,7.20
2023-03-28T23:38:14.031Z,7.20
2023-03-28T23:40:41.390Z,7.10
2023-03-28T23:43:08.800Z,7.10
2023-03-28T23:45:35.642Z,7.10
2023-03-28T23:48:02.384Z,6.90
2023-03-28T23:50:29.384Z,7.00
2023-03-28T23:52:56.139Z,7.10
2023-03-28T23:55:23.234Z,7.10
2023-03-28T23:57:49.928Z,7.00
